Terminal Aerodrome Forecast
Issued by NWS Grand Forks, ND

Home | Current Version | Previous Version | Text Only | Print | Product List | Glossary Off
Versions: 1 2 3 4 5 6 7 8 9 10 11 12 13 14 15 16 17 18

000
FTUS43 KFGF 260648 AAA
TAFFAR
TAF AMD
KFAR 260648Z 2607/2706 VRB03KT P6SM SCT110
      TEMPO 2607/2611 2SM BR
     FM261500 18006KT P6SM SCT110
     FM262100 30006KT P6SM SCT110=

USA.gov is the U.S. government's official web portal to all federal, state and local government web resources and services.